sensor_id;sensor_type;location;lat;lon;timestamp;P1;durP1;ratioP1;P2;durP2;ratioP2
12774;SDS011;6451;42.630;23.382;2023-03-11T00:00:53;4.83;;;4.10;;
12774;SDS011;6451;42.630;23.382;2023-03-11T00:03:20;4.67;;;3.97;;
12774;SDS011;6451;42.630;23.382;2023-03-11T00:05:49;4.00;;;3.33;;
12774;SDS011;6451;42.630;23.382;2023-03-11T00:08:20;7.77;;;6.70;;
12774;SDS011;6451;42.630;23.382;2023-03-11T00:10:50;11.53;;;8.73;;
12774;SDS011;6451;42.630;23.382;2023-03-11T00:13:21;11.80;;;10.57;;
12774;SDS011;6451;42.630;23.382;2023-03-11T00:15:49;10.80;;;9.70;;
12774;SDS011;6451;42.630;23.382;2023-03-11T00:18:19;6.37;;;5.53;;
12774;SDS011;6451;42.630;23.382;2023-03-11T00:20:52;7.67;;;6.50;;
12774;SDS011;6451;42.630;23.382;2023-03-11T00:23:20;7.47;;;4.27;;
12774;SDS011;6451;42.630;23.382;2023-03-11T00:25:49;4.97;;;4.13;;
12774;SDS011;6451;42.630;23.382;2023-03-11T00:28:16;3.93;;;3.07;;
12774;SDS011;6451;42.630;23.382;2023-03-11T00:30:45;3.30;;;2.60;;
12774;SDS011;6451;42.630;23.382;2023-03-11T00:33:12;2.50;;;2.30;;
12774;SDS011;6451;42.630;23.382;2023-03-11T00:35:42;2.87;;;2.13;;
12774;SDS011;6451;42.630;23.382;2023-03-11T00:38:11;2.80;;;2.13;;
12774;SDS011;6451;42.630;23.382;2023-03-11T00:40:42;3.00;;;2.20;;
12774;SDS011;6451;42.630;23.382;2023-03-11T00:43:10;2.50;;;2.00;;
12774;SDS011;6451;42.630;23.382;2023-03-11T00:45:38;3.87;;;2.13;;
12774;SDS011;6451;42.630;23.382;2023-03-11T00:48:07;3.37;;;1.63;;
12774;SDS011;6451;42.630;23.382;2023-03-11T00:50:35;2.17;;;1.77;;
12774;SDS011;6451;42.630;23.382;2023-03-11T00:53:03;1.60;;;1.50;;
12774;SDS011;6451;42.630;23.382;2023-03-11T00:55:32;3.17;;;1.70;;
12774;SDS011;6451;42.630;23.382;2023-03-11T00:58:00;1.50;;;1.40;;
12774;SDS011;6451;42.630;23.382;2023-03-11T01:00:29;1.57;;;1.47;;
12774;SDS011;6451;42.630;23.382;2023-03-11T01:02:57;1.90;;;1.47;;
12774;SDS011;6451;42.630;23.382;2023-03-11T01:05:27;1.43;;;1.33;;
12774;SDS011;6451;42.630;23.382;2023-03-11T01:07:56;2.60;;;1.47;;
12774;SDS011;6451;42.630;23.382;2023-03-11T01:10:24;2.27;;;1.40;;
12774;SDS011;6451;42.630;23.382;2023-03-11T01:12:51;1.73;;;1.27;;
12774;SDS011;6451;42.630;23.382;2023-03-11T01:15:19;2.67;;;1.60;;
12774;SDS011;6451;42.630;23.382;2023-03-11T01:17:48;2.23;;;2.03;;
12774;SDS011;6451;42.630;23.382;2023-03-11T01:20:15;3.67;;;2.40;;
12774;SDS011;6451;42.630;23.382;2023-03-11T01:22:45;3.57;;;2.10;;
12774;SDS011;6451;42.630;23.382;2023-03-11T01:25:12;3.13;;;1.90;;
12774;SDS011;6451;42.630;23.382;2023-03-11T01:27:41;3.33;;;2.00;;
12774;SDS011;6451;42.630;23.382;2023-03-11T01:30:09;2.77;;;2.10;;
12774;SDS011;6451;42.630;23.382;2023-03-11T01:32:40;1.90;;;1.80;;
12774;SDS011;6451;42.630;23.382;2023-03-11T01:35:08;1.30;;;1.20;;
12774;SDS011;6451;42.630;23.382;2023-03-11T01:37:36;3.60;;;1.60;;
12774;SDS011;6451;42.630;23.382;2023-03-11T01:40:05;1.50;;;1.30;;
12774;SDS011;6451;42.630;23.382;2023-03-11T01:42:34;2.13;;;1.50;;
12774;SDS011;6451;42.630;23.382;2023-03-11T01:45:05;2.00;;;1.70;;
12774;SDS011;6451;42.630;23.382;2023-03-11T01:47:54;2.53;;;1.90;;
12774;SDS011;6451;42.630;23.382;2023-03-11T01:50:21;3.10;;;2.37;;
12774;SDS011;6451;42.630;23.382;2023-03-11T01:52:48;2.10;;;1.90;;
12774;SDS011;6451;42.630;23.382;2023-03-11T01:55:17;2.10;;;1.90;;
12774;SDS011;6451;42.630;23.382;2023-03-11T01:57:44;2.33;;;2.10;;
12774;SDS011;6451;42.630;23.382;2023-03-11T02:00:13;2.77;;;1.93;;
12774;SDS011;6451;42.630;23.382;2023-03-11T02:02:41;4.03;;;2.33;;
12774;SDS011;6451;42.630;23.382;2023-03-11T02:05:13;2.40;;;2.20;;
12774;SDS011;6451;42.630;23.382;2023-03-11T02:07:40;3.67;;;2.53;;
12774;SDS011;6451;42.630;23.382;2023-03-11T02:10:08;2.63;;;2.43;;
12774;SDS011;6451;42.630;23.382;2023-03-11T02:12:39;3.57;;;3.27;;
12774;SDS011;6451;42.630;23.382;2023-03-11T02:15:08;5.03;;;4.50;;
12774;SDS011;6451;42.630;23.382;2023-03-11T02:17:37;4.90;;;4.50;;
12774;SDS011;6451;42.630;23.382;2023-03-11T02:20:12;3.93;;;3.53;;
12774;SDS011;6451;42.630;23.382;2023-03-11T02:22:45;3.90;;;3.50;;
12774;SDS011;6451;42.630;23.382;2023-03-11T02:25:17;7.07;;;5.70;;
12774;SDS011;6451;42.630;23.382;2023-03-11T02:27:52;7.87;;;6.40;;
12774;SDS011;6451;42.630;23.382;2023-03-11T02:30:19;7.80;;;7.10;;
12774;SDS011;6451;42.630;23.382;2023-03-11T02:32:47;7.33;;;6.57;;
12774;SDS011;6451;42.630;23.382;2023-03-11T02:35:15;8.20;;;7.07;;
12774;SDS011;6451;42.630;23.382;2023-03-11T02:37:43;7.07;;;6.37;;
12774;SDS011;6451;42.630;23.382;2023-03-11T02:43:09;8.23;;;6.43;;
12774;SDS011;6451;42.630;23.382;2023-03-11T02:45:40;6.87;;;6.27;;
12774;SDS011;6451;42.630;23.382;2023-03-11T02:48:11;7.63;;;6.80;;
12774;SDS011;6451;42.630;23.382;2023-03-11T02:50:42;8.13;;;7.07;;
12774;SDS011;6451;42.630;23.382;2023-03-11T02:53:11;7.83;;;6.77;;
12774;SDS011;6451;42.630;23.382;2023-03-11T02:55:38;6.80;;;6.10;;
12774;SDS011;6451;42.630;23.382;2023-03-11T02:58:05;7.50;;;6.57;;
12774;SDS011;6451;42.630;23.382;2023-03-11T03:00:34;7.10;;;6.43;;
12774;SDS011;6451;42.630;23.382;2023-03-11T03:03:02;7.50;;;6.80;;
12774;SDS011;6451;42.630;23.382;2023-03-11T03:05:29;7.13;;;6.43;;
12774;SDS011;6451;42.630;23.382;2023-03-11T03:07:58;6.77;;;6.10;;
12774;SDS011;6451;42.630;23.382;2023-03-11T03:10:28;7.70;;;6.90;;
12774;SDS011;6451;42.630;23.382;2023-03-11T03:12:55;8.10;;;7.30;;
12774;SDS011;6451;42.630;23.382;2023-03-11T03:15:23;7.33;;;6.73;;
12774;SDS011;6451;42.630;23.382;2023-03-11T03:17:52;9.93;;;7.20;;
12774;SDS011;6451;42.630;23.382;2023-03-11T03:20:19;8.23;;;6.97;;
12774;SDS011;6451;42.630;23.382;2023-03-11T03:22:47;7.07;;;6.37;;
12774;SDS011;6451;42.630;23.382;2023-03-11T03:25:14;5.33;;;4.83;;
12774;SDS011;6451;42.630;23.382;2023-03-11T03:27:43;4.60;;;4.20;;
12774;SDS011;6451;42.630;23.382;2023-03-11T03:30:10;4.40;;;4.00;;
12774;SDS011;6451;42.630;23.382;2023-03-11T03:32:37;4.80;;;4.30;;
12774;SDS011;6451;42.630;23.382;2023-03-11T03:35:07;3.90;;;3.60;;
12774;SDS011;6451;42.630;23.382;2023-03-11T03:37:35;4.20;;;3.80;;
12774;SDS011;6451;42.630;23.382;2023-03-11T03:40:03;5.47;;;3.70;;
12774;SDS011;6451;42.630;23.382;2023-03-11T03:42:32;3.60;;;3.30;;
12774;SDS011;6451;42.630;23.382;2023-03-11T03:45:00;3.60;;;3.20;;
12774;SDS011;6451;42.630;23.382;2023-03-11T03:47:28;3.47;;;3.03;;
12774;SDS011;6451;42.630;23.382;2023-03-11T03:49:55;3.23;;;2.97;;
12774;SDS011;6451;42.630;23.382;2023-03-11T03:52:23;3.40;;;3.10;;
12774;SDS011;6451;42.630;23.382;2023-03-11T03:54:51;3.17;;;2.87;;
12774;SDS011;6451;42.630;23.382;2023-03-11T03:57:18;3.53;;;2.97;;
12774;SDS011;6451;42.630;23.382;2023-03-11T03:59:45;3.10;;;2.80;;
12774;SDS011;6451;42.630;23.382;2023-03-11T04:02:12;3.20;;;2.90;;
12774;SDS011;6451;42.630;23.382;2023-03-11T04:04:38;2.87;;;2.57;;
12774;SDS011;6451;42.630;23.382;2023-03-11T04:07:05;2.63;;;2.03;;
12774;SDS011;6451;42.630;23.382;2023-03-11T04:09:37;2.63;;;2.43;;
12774;SDS011;6451;42.630;23.382;2023-03-11T04:12:04;3.10;;;2.80;;
12774;SDS011;6451;42.630;23.382;2023-03-11T04:14:32;5.47;;;4.63;;
12774;SDS011;6451;42.630;23.382;2023-03-11T04:16:59;4.63;;;4.17;;
12774;SDS011;6451;42.630;23.382;2023-03-11T04:19:25;11.17;;;6.50;;
12774;SDS011;6451;42.630;23.382;2023-03-11T04:21:53;6.63;;;6.03;;
12774;SDS011;6451;42.630;23.382;2023-03-11T04:24:21;7.27;;;6.57;;
12774;SDS011;6451;42.630;23.382;2023-03-11T04:26:49;7.67;;;6.87;;
12774;SDS011;6451;42.630;23.382;2023-03-11T04:29:16;8.73;;;7.63;;
12774;SDS011;6451;42.630;23.382;2023-03-11T04:31:43;8.10;;;7.30;;
12774;SDS011;6451;42.630;23.382;2023-03-11T04:34:10;10.20;;;7.43;;
12774;SDS011;6451;42.630;23.382;2023-03-11T04:36:37;6.40;;;5.80;;
12774;SDS011;6451;42.630;23.382;2023-03-11T04:39:04;4.50;;;4.10;;
12774;SDS011;6451;42.630;23.382;2023-03-11T04:41:31;4.87;;;3.40;;
12774;SDS011;6451;42.630;23.382;2023-03-11T04:43:59;3.90;;;3.13;;
12774;SDS011;6451;42.630;23.382;2023-03-11T04:46:26;4.43;;;4.03;;
12774;SDS011;6451;42.630;23.382;2023-03-11T04:48:54;5.87;;;5.27;;
12774;SDS011;6451;42.630;23.382;2023-03-11T04:51:21;5.67;;;5.17;;
12774;SDS011;6451;42.630;23.382;2023-03-11T04:53:48;6.07;;;5.57;;
12774;SDS011;6451;42.630;23.382;2023-03-11T04:56:15;5.60;;;5.07;;
12774;SDS011;6451;42.630;23.382;2023-03-11T04:58:44;5.97;;;5.33;;
12774;SDS011;6451;42.630;23.382;2023-03-11T05:01:12;5.27;;;4.73;;
12774;SDS011;6451;42.630;23.382;2023-03-11T05:03:39;5.37;;;4.73;;
12774;SDS011;6451;42.630;23.382;2023-03-11T05:06:07;5.07;;;4.67;;
12774;SDS011;6451;42.630;23.382;2023-03-11T05:08:34;5.73;;;4.40;;
12774;SDS011;6451;42.630;23.382;2023-03-11T05:11:00;4.00;;;3.60;;
12774;SDS011;6451;42.630;23.382;2023-03-11T05:13:29;4.33;;;3.40;;
12774;SDS011;6451;42.630;23.382;2023-03-11T05:15:56;3.50;;;3.20;;
12774;SDS011;6451;42.630;23.382;2023-03-11T05:18:25;3.60;;;3.30;;
12774;SDS011;6451;42.630;23.382;2023-03-11T05:20:52;2.57;;;2.10;;
12774;SDS011;6451;42.630;23.382;2023-03-11T05:23:18;2.37;;;2.10;;
12774;SDS011;6451;42.630;23.382;2023-03-11T05:25:45;1.57;;;1.10;;
12774;SDS011;6451;42.630;23.382;2023-03-11T05:28:12;1.67;;;1.20;;
12774;SDS011;6451;42.630;23.382;2023-03-11T05:30:39;2.10;;;1.10;;
12774;SDS011;6451;42.630;23.382;2023-03-11T05:33:06;1.50;;;1.30;;
12774;SDS011;6451;42.630;23.382;2023-03-11T05:35:35;3.67;;;1.33;;
12774;SDS011;6451;42.630;23.382;2023-03-11T05:38:02;1.10;;;1.00;;
12774;SDS011;6451;42.630;23.382;2023-03-11T05:40:29;1.30;;;1.13;;
12774;SDS011;6451;42.630;23.382;2023-03-11T05:42:56;2.27;;;1.00;;
12774;SDS011;6451;42.630;23.382;2023-03-11T05:45:24;5.97;;;3.87;;
12774;SDS011;6451;42.630;23.382;2023-03-11T05:47:51;3.60;;;3.30;;
12774;SDS011;6451;42.630;23.382;2023-03-11T05:50:18;0.90;;;0.80;;
12774;SDS011;6451;42.630;23.382;2023-03-11T05:52:47;1.00;;;0.87;;
12774;SDS011;6451;42.630;23.382;2023-03-11T05:55:14;1.00;;;0.80;;
12774;SDS011;6451;42.630;23.382;2023-03-11T05:57:41;2.17;;;0.70;;
12774;SDS011;6451;42.630;23.382;2023-03-11T06:00:08;0.70;;;0.70;;
12774;SDS011;6451;42.630;23.382;2023-03-11T06:02:37;1.27;;;0.80;;
12774;SDS011;6451;42.630;23.382;2023-03-11T06:05:05;0.77;;;0.73;;
12774;SDS011;6451;42.630;23.382;2023-03-11T06:07:33;0.70;;;0.63;;
12774;SDS011;6451;42.630;23.382;2023-03-11T06:10:04;0.97;;;0.60;;
12774;SDS011;6451;42.630;23.382;2023-03-11T06:12:32;0.70;;;0.70;;
12774;SDS011;6451;42.630;23.382;2023-03-11T06:15:00;0.87;;;0.70;;
12774;SDS011;6451;42.630;23.382;2023-03-11T06:17:27;0.70;;;0.70;;
12774;SDS011;6451;42.630;23.382;2023-03-11T06:19:54;0.87;;;0.70;;
12774;SDS011;6451;42.630;23.382;2023-03-11T06:22:21;1.10;;;0.90;;
12774;SDS011;6451;42.630;23.382;2023-03-11T06:24:49;1.93;;;0.90;;
12774;SDS011;6451;42.630;23.382;2023-03-11T06:27:17;1.20;;;0.90;;
12774;SDS011;6451;42.630;23.382;2023-03-11T06:29:44;2.17;;;1.00;;
12774;SDS011;6451;42.630;23.382;2023-03-11T06:32:11;0.97;;;0.87;;
12774;SDS011;6451;42.630;23.382;2023-03-11T06:34:38;1.10;;;0.90;;
12774;SDS011;6451;42.630;23.382;2023-03-11T06:37:05;1.50;;;1.07;;
12774;SDS011;6451;42.630;23.382;2023-03-11T06:39:33;1.57;;;0.90;;
12774;SDS011;6451;42.630;23.382;2023-03-11T06:44:32;1.77;;;1.00;;
12774;SDS011;6451;42.630;23.382;2023-03-11T06:47:01;1.63;;;1.00;;
12774;SDS011;6451;42.630;23.382;2023-03-11T06:49:28;1.20;;;1.10;;
12774;SDS011;6451;42.630;23.382;2023-03-11T06:51:54;1.60;;;1.13;;
12774;SDS011;6451;42.630;23.382;2023-03-11T06:54:22;1.40;;;1.10;;
12774;SDS011;6451;42.630;23.382;2023-03-11T06:56:52;1.13;;;1.00;;
12774;SDS011;6451;42.630;23.382;2023-03-11T06:59:19;1.80;;;1.00;;
12774;SDS011;6451;42.630;23.382;2023-03-11T07:01:48;1.43;;;0.90;;
12774;SDS011;6451;42.630;23.382;2023-03-11T07:04:15;0.70;;;0.70;;
12774;SDS011;6451;42.630;23.382;2023-03-11T07:06:44;0.90;;;0.60;;
12774;SDS011;6451;42.630;23.382;2023-03-11T07:09:11;0.77;;;0.77;;
12774;SDS011;6451;42.630;23.382;2023-03-11T07:11:39;1.40;;;0.70;;
12774;SDS011;6451;42.630;23.382;2023-03-11T07:14:07;1.27;;;0.80;;
12774;SDS011;6451;42.630;23.382;2023-03-11T07:16:34;1.03;;;0.80;;
12774;SDS011;6451;42.630;23.382;2023-03-11T07:19:08;1.53;;;0.80;;
12774;SDS011;6451;42.630;23.382;2023-03-11T07:21:35;1.03;;;0.73;;
12774;SDS011;6451;42.630;23.382;2023-03-11T07:24:04;1.17;;;1.03;;
12774;SDS011;6451;42.630;23.382;2023-03-11T07:26:32;1.33;;;0.80;;
12774;SDS011;6451;42.630;23.382;2023-03-11T07:29:00;0.80;;;0.80;;
12774;SDS011;6451;42.630;23.382;2023-03-11T07:31:28;1.20;;;0.80;;
12774;SDS011;6451;42.630;23.382;2023-03-11T07:33:58;0.87;;;0.73;;
12774;SDS011;6451;42.630;23.382;2023-03-11T07:36:27;0.73;;;0.70;;
12774;SDS011;6451;42.630;23.382;2023-03-11T07:38:56;0.90;;;0.73;;
12774;SDS011;6451;42.630;23.382;2023-03-11T07:41:25;3.50;;;0.80;;
12774;SDS011;6451;42.630;23.382;2023-03-11T07:43:53;1.07;;;0.97;;
12774;SDS011;6451;42.630;23.382;2023-03-11T07:46:22;0.93;;;0.90;;
12774;SDS011;6451;42.630;23.382;2023-03-11T07:48:57;0.87;;;0.80;;
12774;SDS011;6451;42.630;23.382;2023-03-11T07:51:28;1.17;;;0.90;;
12774;SDS011;6451;42.630;23.382;2023-03-11T07:53:57;2.40;;;1.10;;
12774;SDS011;6451;42.630;23.382;2023-03-11T07:56:27;1.27;;;0.90;;
12774;SDS011;6451;42.630;23.382;2023-03-11T07:58:57;3.37;;;1.13;;
12774;SDS011;6451;42.630;23.382;2023-03-11T08:01:25;1.00;;;0.90;;
12774;SDS011;6451;42.630;23.382;2023-03-11T08:04:00;2.60;;;1.30;;
12774;SDS011;6451;42.630;23.382;2023-03-11T08:06:30;1.47;;;1.00;;
12774;SDS011;6451;42.630;23.382;2023-03-11T08:08:59;1.03;;;0.90;;
12774;SDS011;6451;42.630;23.382;2023-03-11T08:11:28;3.80;;;1.60;;
12774;SDS011;6451;42.630;23.382;2023-03-11T08:13:56;1.67;;;1.20;;
12774;SDS011;6451;42.630;23.382;2023-03-11T08:16:23;2.03;;;1.30;;
12774;SDS011;6451;42.630;23.382;2023-03-11T08:18:51;2.00;;;1.30;;
12774;SDS011;6451;42.630;23.382;2023-03-11T08:21:19;1.30;;;1.10;;
12774;SDS011;6451;42.630;23.382;2023-03-11T08:23:50;2.37;;;1.30;;
12774;SDS011;6451;42.630;23.382;2023-03-11T08:26:17;3.70;;;1.30;;
12774;SDS011;6451;42.630;23.382;2023-03-11T08:28:47;1.37;;;1.27;;
12774;SDS011;6451;42.630;23.382;2023-03-11T08:31:15;1.43;;;1.10;;
12774;SDS011;6451;42.630;23.382;2023-03-11T08:33:45;1.73;;;1.20;;
12774;SDS011;6451;42.630;23.382;2023-03-11T08:36:14;4.07;;;1.10;;
12774;SDS011;6451;42.630;23.382;2023-03-11T08:38:43;2.93;;;1.40;;
12774;SDS011;6451;42.630;23.382;2023-03-11T08:41:12;4.13;;;1.80;;
12774;SDS011;6451;42.630;23.382;2023-03-11T08:43:39;8.17;;;3.73;;
12774;SDS011;6451;42.630;23.382;2023-03-11T08:46:07;5.00;;;1.50;;
12774;SDS011;6451;42.630;23.382;2023-03-11T08:48:34;7.00;;;2.50;;
12774;SDS011;6451;42.630;23.382;2023-03-11T08:51:07;3.80;;;1.50;;
12774;SDS011;6451;42.630;23.382;2023-03-11T08:53:35;2.10;;;1.20;;
12774;SDS011;6451;42.630;23.382;2023-03-11T08:56:02;2.00;;;1.10;;
12774;SDS011;6451;42.630;23.382;2023-03-11T08:58:31;2.53;;;0.90;;
12774;SDS011;6451;42.630;23.382;2023-03-11T09:00:58;3.40;;;1.10;;
12774;SDS011;6451;42.630;23.382;2023-03-11T09:03:26;2.77;;;1.07;;
12774;SDS011;6451;42.630;23.382;2023-03-11T09:05:56;5.73;;;1.30;;
12774;SDS011;6451;42.630;23.382;2023-03-11T09:08:24;1.97;;;1.20;;
12774;SDS011;6451;42.630;23.382;2023-03-11T09:10:51;2.27;;;1.00;;
12774;SDS011;6451;42.630;23.382;2023-03-11T09:13:17;2.90;;;1.13;;
12774;SDS011;6451;42.630;23.382;2023-03-11T09:15:46;1.57;;;1.00;;
12774;SDS011;6451;42.630;23.382;2023-03-11T09:18:15;2.53;;;0.90;;
12774;SDS011;6451;42.630;23.382;2023-03-11T09:20:42;2.30;;;1.07;;
12774;SDS011;6451;42.630;23.382;2023-03-11T09:23:10;3.63;;;1.13;;
12774;SDS011;6451;42.630;23.382;2023-03-11T09:25:38;1.90;;;1.00;;
12774;SDS011;6451;42.630;23.382;2023-03-11T09:28:05;1.70;;;1.10;;
12774;SDS011;6451;42.630;23.382;2023-03-11T09:30:34;1.90;;;1.00;;
12774;SDS011;6451;42.630;23.382;2023-03-11T09:33:04;1.97;;;1.30;;
12774;SDS011;6451;42.630;23.382;2023-03-11T09:35:31;1.60;;;1.00;;
12774;SDS011;6451;42.630;23.382;2023-03-11T09:37:57;4.47;;;1.50;;
12774;SDS011;6451;42.630;23.382;2023-03-11T09:40:25;3.70;;;1.30;;
12774;SDS011;6451;42.630;23.382;2023-03-11T09:43:03;2.40;;;1.10;;
12774;SDS011;6451;42.630;23.382;2023-03-11T09:45:37;3.03;;;1.20;;
12774;SDS011;6451;42.630;23.382;2023-03-11T09:48:14;2.63;;;1.13;;
12774;SDS011;6451;42.630;23.382;2023-03-11T09:50:47;2.33;;;1.00;;
12774;SDS011;6451;42.630;23.382;2023-03-11T09:53:25;2.20;;;1.00;;
12774;SDS011;6451;42.630;23.382;2023-03-11T09:56:00;2.03;;;1.23;;
12774;SDS011;6451;42.630;23.382;2023-03-11T09:58:33;5.70;;;1.25;;
12774;SDS011;6451;42.630;23.382;2023-03-11T10:01:05;2.00;;;1.30;;
12774;SDS011;6451;42.630;23.382;2023-03-11T10:03:43;2.22;;;1.73;;
12774;SDS011;6451;42.630;23.382;2023-03-11T10:06:13;1.52;;;1.00;;
12774;SDS011;6451;42.630;23.382;2023-03-11T10:08:44;2.50;;;1.20;;
12774;SDS011;6451;42.630;23.382;2023-03-11T10:14:26;1.98;;;1.30;;
12774;SDS011;6451;42.630;23.382;2023-03-11T10:17:05;1.83;;;1.10;;
12774;SDS011;6451;42.630;23.382;2023-03-11T10:19:43;2.33;;;1.30;;
12774;SDS011;6451;42.630;23.382;2023-03-11T10:22:20;2.03;;;1.10;;
12774;SDS011;6451;42.630;23.382;2023-03-11T10:24:59;3.28;;;1.30;;
12774;SDS011;6451;42.630;23.382;2023-03-11T10:27:34;4.00;;;1.60;;
12774;SDS011;6451;42.630;23.382;2023-03-11T10:30:08;3.00;;;1.20;;
12774;SDS011;6451;42.630;23.382;2023-03-11T10:32:41;3.60;;;1.20;;
12774;SDS011;6451;42.630;23.382;2023-03-11T10:35:19;1.95;;;1.20;;
12774;SDS011;6451;42.630;23.382;2023-03-11T10:37:50;1.85;;;1.13;;
12774;SDS011;6451;42.630;23.382;2023-03-11T10:40:25;3.30;;;1.33;;
12774;SDS011;6451;42.630;23.382;2023-03-11T10:42:57;1.88;;;1.02;;
12774;SDS011;6451;42.630;23.382;2023-03-11T10:45:31;2.78;;;1.30;;
12774;SDS011;6451;42.630;23.382;2023-03-11T10:48:03;2.40;;;0.90;;
12774;SDS011;6451;42.630;23.382;2023-03-11T10:50:37;1.98;;;1.27;;
12774;SDS011;6451;42.630;23.382;2023-03-11T10:53:13;1.83;;;1.02;;
12774;SDS011;6451;42.630;23.382;2023-03-11T10:55:44;2.05;;;1.30;;
12774;SDS011;6451;42.630;23.382;2023-03-11T10:58:14;3.78;;;1.23;;
12774;SDS011;6451;42.630;23.382;2023-03-11T11:00:42;4.68;;;1.20;;
12774;SDS011;6451;42.630;23.382;2023-03-11T11:03:16;1.02;;;0.93;;
12774;SDS011;6451;42.630;23.382;2023-03-11T11:05:57;1.88;;;1.00;;
12774;SDS011;6451;42.630;23.382;2023-03-11T11:08:28;2.47;;;1.10;;
12774;SDS011;6451;42.630;23.382;2023-03-11T11:10:56;1.33;;;0.90;;
12774;SDS011;6451;42.630;23.382;2023-03-11T11:13:25;2.10;;;1.10;;
12774;SDS011;6451;42.630;23.382;2023-03-11T11:15:55;1.77;;;1.10;;
12774;SDS011;6451;42.630;23.382;2023-03-11T11:18:25;2.57;;;1.20;;
12774;SDS011;6451;42.630;23.382;2023-03-11T11:21:00;2.20;;;1.27;;
12774;SDS011;6451;42.630;23.382;2023-03-11T11:23:33;1.40;;;1.00;;
12774;SDS011;6451;42.630;23.382;2023-03-11T11:26:04;1.87;;;1.20;;
12774;SDS011;6451;42.630;23.382;2023-03-11T11:28:34;3.03;;;1.43;;
12774;SDS011;6451;42.630;23.382;2023-03-11T11:31:02;1.87;;;1.13;;
12774;SDS011;6451;42.630;23.382;2023-03-11T11:33:30;3.03;;;1.43;;
12774;SDS011;6451;42.630;23.382;2023-03-11T11:36:01;2.75;;;1.40;;
12774;SDS011;6451;42.630;23.382;2023-03-11T11:38:30;3.53;;;1.50;;
12774;SDS011;6451;42.630;23.382;2023-03-11T11:41:00;3.20;;;1.50;;
12774;SDS011;6451;42.630;23.382;2023-03-11T11:43:31;1.77;;;1.30;;
12774;SDS011;6451;42.630;23.382;2023-03-11T11:46:09;3.40;;;1.50;;
12774;SDS011;6451;42.630;23.382;2023-03-11T11:48:45;2.92;;;1.38;;
12774;SDS011;6451;42.630;23.382;2023-03-11T11:51:17;4.57;;;1.40;;
12774;SDS011;6451;42.630;23.382;2023-03-11T11:53:48;2.47;;;1.27;;
12774;SDS011;6451;42.630;23.382;2023-03-11T11:56:22;1.92;;;1.20;;
12774;SDS011;6451;42.630;23.382;2023-03-11T11:58:50;3.53;;;1.60;;
12774;SDS011;6451;42.630;23.382;2023-03-11T12:01:21;2.83;;;1.33;;
12774;SDS011;6451;42.630;23.382;2023-03-11T12:04:18;4.03;;;1.70;;
12774;SDS011;6451;42.630;23.382;2023-03-11T12:07:06;2.55;;;1.50;;
12774;SDS011;6451;42.630;23.382;2023-03-11T12:09:46;2.30;;;1.33;;
12774;SDS011;6451;42.630;23.382;2023-03-11T12:12:22;2.72;;;1.38;;
12774;SDS011;6451;42.630;23.382;2023-03-11T12:14:57;2.50;;;1.50;;
12774;SDS011;6451;42.630;23.382;2023-03-11T12:17:31;3.67;;;1.30;;
12774;SDS011;6451;42.630;23.382;2023-03-11T12:20:04;3.88;;;1.33;;
12774;SDS011;6451;42.630;23.382;2023-03-11T12:22:42;4.63;;;1.38;;
12774;SDS011;6451;42.630;23.382;2023-03-11T12:25:24;6.03;;;1.52;;
12774;SDS011;6451;42.630;23.382;2023-03-11T12:27:58;2.63;;;1.50;;
12774;SDS011;6451;42.630;23.382;2023-03-11T12:30:34;2.35;;;1.30;;
12774;SDS011;6451;42.630;23.382;2023-03-11T12:33:09;2.85;;;1.40;;
12774;SDS011;6451;42.630;23.382;2023-03-11T12:35:39;2.17;;;1.30;;
12774;SDS011;6451;42.630;23.382;2023-03-11T12:38:16;2.80;;;1.42;;
12774;SDS011;6451;42.630;23.382;2023-03-11T12:40:58;3.05;;;1.45;;
12774;SDS011;6451;42.630;23.382;2023-03-11T12:49:42;3.72;;;1.30;;
12774;SDS011;6451;42.630;23.382;2023-03-11T12:55:28;2.72;;;1.30;;
12774;SDS011;6451;42.630;23.382;2023-03-11T12:58:00;1.98;;;1.08;;
12774;SDS011;6451;42.630;23.382;2023-03-11T13:00:49;6.22;;;4.50;;
12774;SDS011;6451;42.630;23.382;2023-03-11T13:06:29;3.10;;;1.35;;
12774;SDS011;6451;42.630;23.382;2023-03-11T13:09:13;2.17;;;1.05;;
12774;SDS011;6451;42.630;23.382;2023-03-11T13:11:44;2.95;;;1.10;;
12774;SDS011;6451;42.630;23.382;2023-03-11T13:19:59;2.72;;;1.33;;
12774;SDS011;6451;42.630;23.382;2023-03-11T13:25:55;3.17;;;1.20;;
12774;SDS011;6451;42.630;23.382;2023-03-11T13:28:44;2.95;;;1.30;;
12774;SDS011;6451;42.630;23.382;2023-03-11T13:31:38;2.63;;;1.30;;
12774;SDS011;6451;42.630;23.382;2023-03-11T13:34:12;2.80;;;1.40;;
12774;SDS011;6451;42.630;23.382;2023-03-11T13:36:45;3.45;;;1.40;;
12774;SDS011;6451;42.630;23.382;2023-03-11T13:42:16;1.90;;;1.20;;
12774;SDS011;6451;42.630;23.382;2023-03-11T13:44:50;3.70;;;1.40;;
12774;SDS011;6451;42.630;23.382;2023-03-11T13:47:17;2.70;;;1.13;;
12774;SDS011;6451;42.630;23.382;2023-03-11T13:49:48;2.73;;;1.37;;
12774;SDS011;6451;42.630;23.382;2023-03-11T13:52:21;2.23;;;1.20;;
12774;SDS011;6451;42.630;23.382;2023-03-11T13:54:54;1.30;;;1.10;;
12774;SDS011;6451;42.630;23.382;2023-03-11T13:57:28;3.97;;;1.30;;
12774;SDS011;6451;42.630;23.382;2023-03-11T14:00:03;2.00;;;1.20;;
12774;SDS011;6451;42.630;23.382;2023-03-11T14:02:42;3.53;;;1.37;;
12774;SDS011;6451;42.630;23.382;2023-03-11T14:05:14;2.20;;;1.40;;
12774;SDS011;6451;42.630;23.382;2023-03-11T14:07:49;2.67;;;1.60;;
12774;SDS011;6451;42.630;23.382;2023-03-11T14:10:17;3.13;;;1.70;;
12774;SDS011;6451;42.630;23.382;2023-03-11T14:12:50;2.60;;;1.70;;
12774;SDS011;6451;42.630;23.382;2023-03-11T14:15:31;2.17;;;1.40;;
12774;SDS011;6451;42.630;23.382;2023-03-11T14:18:24;2.77;;;1.63;;
12774;SDS011;6451;42.630;23.382;2023-03-11T14:21:12;3.60;;;1.50;;
12774;SDS011;6451;42.630;23.382;2023-03-11T14:23:42;2.53;;;1.60;;
12774;SDS011;6451;42.630;23.382;2023-03-11T14:26:14;2.17;;;1.43;;
12774;SDS011;6451;42.630;23.382;2023-03-11T14:28:43;8.70;;;6.30;;
12774;SDS011;6451;42.630;23.382;2023-03-11T14:31:28;10.37;;;7.13;;
12774;SDS011;6451;42.630;23.382;2023-03-11T14:33:59;6.57;;;4.03;;
12774;SDS011;6451;42.630;23.382;2023-03-11T14:36:38;1.90;;;1.60;;
12774;SDS011;6451;42.630;23.382;2023-03-11T14:39:24;2.10;;;1.60;;
12774;SDS011;6451;42.630;23.382;2023-03-11T14:41:56;3.13;;;1.77;;
12774;SDS011;6451;42.630;23.382;2023-03-11T14:44:28;2.93;;;1.80;;
12774;SDS011;6451;42.630;23.382;2023-03-11T14:47:02;5.97;;;3.70;;
12774;SDS011;6451;42.630;23.382;2023-03-11T14:49:34;4.57;;;2.90;;
12774;SDS011;6451;42.630;23.382;2023-03-11T14:52:04;3.67;;;2.67;;
12774;SDS011;6451;42.630;23.382;2023-03-11T14:54:36;3.23;;;2.10;;
12774;SDS011;6451;42.630;23.382;2023-03-11T14:57:06;4.27;;;2.67;;
12774;SDS011;6451;42.630;23.382;2023-03-11T14:59:41;3.00;;;2.10;;
12774;SDS011;6451;42.630;23.382;2023-03-11T15:05:07;2.10;;;1.80;;
12774;SDS011;6451;42.630;23.382;2023-03-11T15:07:41;2.47;;;1.90;;
12774;SDS011;6451;42.630;23.382;2023-03-11T15:10:16;3.83;;;1.80;;
12774;SDS011;6451;42.630;23.382;2023-03-11T15:12:43;2.13;;;1.83;;
12774;SDS011;6451;42.630;23.382;2023-03-11T15:15:20;2.47;;;1.73;;
12774;SDS011;6451;42.630;23.382;2023-03-11T15:17:54;2.57;;;1.60;;
12774;SDS011;6451;42.630;23.382;2023-03-11T15:20:23;3.40;;;1.60;;
12774;SDS011;6451;42.630;23.382;2023-03-11T15:22:55;3.20;;;1.80;;
12774;SDS011;6451;42.630;23.382;2023-03-11T15:25:26;2.77;;;1.80;;
12774;SDS011;6451;42.630;23.382;2023-03-11T15:27:54;2.87;;;1.97;;
12774;SDS011;6451;42.630;23.382;2023-03-11T15:30:22;3.40;;;1.70;;
12774;SDS011;6451;42.630;23.382;2023-03-11T15:32:53;2.33;;;1.50;;
12774;SDS011;6451;42.630;23.382;2023-03-11T15:35:22;2.33;;;1.60;;
12774;SDS011;6451;42.630;23.382;2023-03-11T15:37:51;2.93;;;1.70;;
12774;SDS011;6451;42.630;23.382;2023-03-11T15:40:37;3.43;;;1.63;;
12774;SDS011;6451;42.630;23.382;2023-03-11T15:43:19;2.13;;;1.60;;